Emma T — WDF3197 — position and weather

sailwx.info

Track history (hours):
 
Tides and Currents Weather Stations Pressure Air Temp Water Temp Dewpoint Dewpoint Depression Visibility Wind Speed Wind Dir Waves Ship Positions

Emma T

Owner: Star Maritime, LLC, Shoreline, WA. More information available from US FCC via Universal Licensing System and Coast Guard Vessel Documentation Center.

Last reported at 2018-May-29 17:40 UTC. Time now 2018-Jul-18 04:56 UTC.
Position N 48°30' W 122°33'.
Warning: this ship's position is 49 days out of date.

Length 10 m.

Type: Pleasure craft. MMSI: 366525000.

Date/timePositionNaut miles runAvg speedWind from/ knotsBaromVisibWave heightAir tempDewpointWater temp
2018-May-29 17:40N 48°30' W 122°33'  
2018-May-26 23:39N 48°32' W 122°43'421.1
2018-May-26 23:27N 48°36' W 122°44'3 5.6
2018-May-26 22:55N 48°35' W 122°49'8 1.8
2018-May-26 18:41N 48°33' W 122°60'0 0.9
2018-May-26 18:30N 48°33' W 122°60'0 0.3
2018-May-26 17:27N 48°33' W 122°59'  
2018-May-20 16:46N 48°30' W 122°45'623.8
2018-May-20 16:30N 48°34' W 122°52'4 0.2
2018-May-20 00:24N 48°31' W 122°55'512.9
2018-May-19 23:59N 48°35' W 122°50'5 5.9
2018-May-19 23:12N 48°37' W 122°44'0 0.1
2018-May-19 22:44N 48°37' W 122°44'2 5.0
2018-May-19 22:19N 48°38' W 122°47'10 2.2
2018-May-19 17:59N 48°33' W 122°60'  
Track history (hours):
 
Tides and Currents Weather Stations Pressure Air Temp Water Temp Dewpoint Dewpoint Depression Visibility Wind Speed Wind Dir Waves Ship Positions

Emma T

Owner: Star Maritime, LLC, Shoreline, WA. More information available from US FCC via Universal Licensing System and Coast Guard Vessel Documentation Center.

Last reported at 2018-May-29 17:40 UTC. Time now 2018-Jul-18 04:56 UTC.
Position N 48°30' W 122°33'.
Warning: this ship's position is 49 days out of date.

Length 10 m.

Type: Pleasure craft. MMSI: 366525000.

Date/timePositionNaut miles runAvg speedWind from/ knotsBaromVisibWave heightAir tempDewpointWater temp
2018-May-29 17:40N 48°30' W 122°33'  
2018-May-26 23:39N 48°32' W 122°43'421.1
2018-May-26 23:27N 48°36' W 122°44'3 5.6
2018-May-26 22:55N 48°35' W 122°49'8 1.8
2018-May-26 18:41N 48°33' W 122°60'0 0.9
2018-May-26 18:30N 48°33' W 122°60'0 0.3
2018-May-26 17:27N 48°33' W 122°59'  
2018-May-20 16:46N 48°30' W 122°45'623.8
2018-May-20 16:30N 48°34' W 122°52'4 0.2
2018-May-20 00:24N 48°31' W 122°55'512.9
2018-May-19 23:59N 48°35' W 122°50'5 5.9
2018-May-19 23:12N 48°37' W 122°44'0 0.1
2018-May-19 22:44N 48°37' W 122°44'2 5.0
2018-May-19 22:19N 48°38' W 122°47'10 2.2
2018-May-19 17:59N 48°33' W 122°60'  

Dump ship's entire track history